createdAt,value
2023-01-26T00:01:19.764Z,20.35
2023-01-26T00:03:46.654Z,21.58
2023-01-26T00:06:15.771Z,20.95
2023-01-26T00:08:45.014Z,21.65
2023-01-26T00:11:14.333Z,21.85
2023-01-26T00:13:41.577Z,22.90
2023-01-26T00:16:11.008Z,22.08
2023-01-26T00:18:39.136Z,22.38
2023-01-26T00:21:07.254Z,20.63
2023-01-26T00:23:36.456Z,19.92
2023-01-26T00:26:06.636Z,19.92
2023-01-26T00:28:33.638Z,20.85
2023-01-26T00:31:08.578Z,20.33
2023-01-26T00:33:35.313Z,20.42
2023-01-26T00:36:02.093Z,20.38
2023-01-26T00:38:28.875Z,21.42
2023-01-26T00:40:55.671Z,21.67
2023-01-26T00:43:22.388Z,19.27
2023-01-26T00:45:49.394Z,17.17
2023-01-26T00:48:16.686Z,19.02
2023-01-26T00:50:43.438Z,19.83
2023-01-26T00:53:10.800Z,22.00
2023-01-26T00:55:37.790Z,20.88
2023-01-26T00:58:06.800Z,20.85
2023-01-26T01:00:35.276Z,20.60
2023-01-26T01:03:02.376Z,20.05
2023-01-26T01:05:31.183Z,21.70
2023-01-26T01:07:58.515Z,22.10
2023-01-26T01:10:27.513Z,21.85
2023-01-26T01:12:54.806Z,21.25
2023-01-26T01:15:21.529Z,20.95
2023-01-26T01:17:48.670Z,21.80
2023-01-26T01:20:15.923Z,22.25
2023-01-26T01:22:42.767Z,22.52
2023-01-26T01:25:09.671Z,20.90
2023-01-26T01:27:36.411Z,23.17
2023-01-26T01:30:07.635Z,23.30
2023-01-26T01:32:40.059Z,23.95
2023-01-26T01:35:07.599Z,22.65
2023-01-26T01:37:34.672Z,24.00
2023-01-26T01:40:01.435Z,22.25
2023-01-26T01:42:28.556Z,26.65
2023-01-26T01:45:30.374Z,24.48
2023-01-26T01:48:00.210Z,24.10
2023-01-26T01:50:27.772Z,26.30
2023-01-26T01:52:56.121Z,24.27
2023-01-26T01:55:25.537Z,25.58
2023-01-26T01:58:00.805Z,24.77
2023-01-26T02:00:28.052Z,24.23
2023-01-26T02:03:11.179Z,25.05
2023-01-26T02:05:47.235Z,25.80
2023-01-26T02:10:43.691Z,25.48
2023-01-26T02:13:11.434Z,25.75
2023-01-26T02:15:38.612Z,25.95
2023-01-26T02:18:05.779Z,27.08
2023-01-26T02:20:41.389Z,25.48
2023-01-26T02:23:30.172Z,27.40
2023-01-26T02:26:16.471Z,25.60
2023-01-26T02:28:45.160Z,25.08
2023-01-26T02:31:13.334Z,26.63
2023-01-26T02:33:41.210Z,24.55
2023-01-26T02:36:17.848Z,25.40
2023-01-26T02:38:48.952Z,26.85
2023-01-26T02:41:39.665Z,24.30
2023-01-26T02:44:10.388Z,24.58
2023-01-26T02:46:37.197Z,25.17
2023-01-26T02:49:22.858Z,25.35
2023-01-26T02:51:49.660Z,25.25
2023-01-26T02:54:34.877Z,24.52
2023-01-26T02:57:02.030Z,23.67
2023-01-26T02:59:28.812Z,24.13
2023-01-26T03:01:57.520Z,24.42
2023-01-26T03:04:24.497Z,23.30
2023-01-26T03:06:51.227Z,23.27
2023-01-26T03:09:17.952Z,24.13
2023-01-26T03:11:44.747Z,23.27
2023-01-26T03:14:15.298Z,24.55
2023-01-26T03:16:42.515Z,23.75
2023-01-26T03:19:31.702Z,26.38
2023-01-26T03:22:17.884Z,26.60
2023-01-26T03:25:03.275Z,25.58
2023-01-26T03:27:34.661Z,24.17
2023-01-26T03:30:01.389Z,26.33
2023-01-26T03:32:28.129Z,26.65
2023-01-26T03:34:54.852Z,26.45
2023-01-26T03:37:22.742Z,24.92
2023-01-26T03:40:10.857Z,24.63
2023-01-26T03:42:56.569Z,25.55
2023-01-26T03:45:41.993Z,25.03
2023-01-26T03:48:30.059Z,25.92
2023-01-26T03:51:16.310Z,26.50
2023-01-26T03:54:02.424Z,25.75
2023-01-26T03:56:32.981Z,26.77
2023-01-26T03:59:08.475Z,24.75
2023-01-26T04:02:03.141Z,26.65
2023-01-26T04:04:48.516Z,30.92
2023-01-26T04:07:33.803Z,28.52
2023-01-26T04:10:00.838Z,29.52
2023-01-26T04:12:27.507Z,30.70
2023-01-26T04:15:13.097Z,30.30
2023-01-26T04:17:58.463Z,29.70
2023-01-26T04:20:43.740Z,31.63
2023-01-26T04:23:20.808Z,32.80
2023-01-26T04:25:50.257Z,35.95
2023-01-26T04:28:16.972Z,35.00
2023-01-26T04:30:43.761Z,34.05
2023-01-26T04:33:10.711Z,36.50
2023-01-26T04:35:37.460Z,34.15
2023-01-26T04:38:04.154Z,33.70
2023-01-26T04:40:30.898Z,32.97
2023-01-26T04:42:57.598Z,31.80
2023-01-26T04:45:24.281Z,31.65
2023-01-26T04:47:51.045Z,34.17
2023-01-26T04:50:17.811Z,31.92
2023-01-26T04:52:44.594Z,31.63
2023-01-26T04:55:11.366Z,30.58
2023-01-26T04:57:38.378Z,31.17
2023-01-26T05:00:05.930Z,32.47
2023-01-26T05:02:32.755Z,30.73
2023-01-26T11:13:18.422Z,13.63
2023-01-26T11:15:52.336Z,12.35
2023-01-26T11:18:37.662Z,13.45
2023-01-26T11:21:11.799Z,12.45
2023-01-26T11:23:54.079Z,11.13
2023-01-26T11:26:34.491Z,12.38
2023-01-26T11:29:26.334Z,12.65
2023-01-26T11:32:30.367Z,11.88
2023-01-26T11:35:05.435Z,10.68
2023-01-26T11:37:42.703Z,12.23
2023-01-26T11:40:25.347Z,13.00
2023-01-26T11:43:15.429Z,14.15
2023-01-26T11:46:24.478Z,13.45
2023-01-26T11:49:23.977Z,13.05
2023-01-26T11:51:56.513Z,12.95
2023-01-26T11:54:55.553Z,13.93
2023-01-26T11:57:53.328Z,15.63
2023-01-26T12:00:30.396Z,13.48
2023-01-26T12:03:06.101Z,14.80
2023-01-26T12:05:46.062Z,15.00
2023-01-26T12:08:18.640Z,16.35
2023-01-26T12:11:22.190Z,14.95
2023-01-26T12:13:58.005Z,15.82
2023-01-26T12:16:42.949Z,14.05
2023-01-26T12:19:12.509Z,15.30
2023-01-26T12:21:44.081Z,15.45
2023-01-26T12:24:48.323Z,16.23
2023-01-26T12:29:51.725Z,16.38
2023-01-26T12:47:26.139Z,16.88
2023-01-26T12:47:26.319Z,15.07
2023-01-26T12:50:01.783Z,17.63
2023-01-26T12:52:37.413Z,15.50
2023-01-26T12:55:22.048Z,16.60
2023-01-26T12:58:04.577Z,18.25
2023-01-26T13:00:37.243Z,16.40
2023-01-26T13:03:28.377Z,17.35
2023-01-26T13:05:58.730Z,15.52
2023-01-26T13:08:31.208Z,18.50
2023-01-26T13:10:59.873Z,18.15
2023-01-26T13:13:28.733Z,18.20
2023-01-26T13:19:43.496Z,19.25
2023-01-26T13:22:19.418Z,16.10
2023-01-26T13:24:48.931Z,18.23
2023-01-26T13:27:40.401Z,18.23
2023-01-26T13:30:22.743Z,19.50
2023-01-26T13:33:10.841Z,20.90
2023-01-26T13:35:38.729Z,19.55
2023-01-26T13:38:10.680Z,18.67
2023-01-26T13:40:42.531Z,19.50
2023-01-26T13:43:39.756Z,18.95
2023-01-26T13:46:54.433Z,22.30
2023-01-26T13:49:27.239Z,23.50
2023-01-26T13:51:54.324Z,20.73
2023-01-26T13:54:23.280Z,20.35
2023-01-26T13:57:07.159Z,19.35
2023-01-26T13:59:36.713Z,19.15
2023-01-26T14:02:11.039Z,20.35
2023-01-26T14:04:37.848Z,18.90
2023-01-26T14:07:09.913Z,20.42
2023-01-26T14:09:49.800Z,19.77
2023-01-26T14:12:25.741Z,18.48
2023-01-26T14:14:57.318Z,20.27
2023-01-26T14:17:33.343Z,19.15
2023-01-26T14:22:28.028Z,17.85
2023-01-26T14:24:55.477Z,20.88
2023-01-26T14:27:24.921Z,19.73
2023-01-26T14:29:51.657Z,18.67
2023-01-26T14:32:18.627Z,19.77
2023-01-26T14:34:59.907Z,18.05
2023-01-26T14:37:28.118Z,14.57
2023-01-26T14:40:25.767Z,20.23
2023-01-26T14:42:53.559Z,18.73
2023-01-26T14:45:33.043Z,17.67
2023-01-26T14:48:05.189Z,20.15
2023-01-26T14:50:32.421Z,19.67
2023-01-26T14:53:03.182Z,20.65
2023-01-26T14:55:36.146Z,20.17
2023-01-26T14:58:12.883Z,18.15
2023-01-26T15:00:39.687Z,19.73
2023-01-26T15:03:19.318Z,21.15
2023-01-26T15:05:46.052Z,22.00
2023-01-26T15:08:21.940Z,23.60
2023-01-26T15:11:18.972Z,22.40
2023-01-26T15:13:53.342Z,22.42
2023-01-26T15:16:23.051Z,22.63
2023-01-26T15:19:08.071Z,23.95
2023-01-26T15:21:40.346Z,23.60
2023-01-26T15:24:13.847Z,24.98
2023-01-26T15:26:41.405Z,21.83
2023-01-26T15:29:28.455Z,23.10
2023-01-26T15:31:57.419Z,22.40
2023-01-26T15:34:38.596Z,24.70
2023-01-26T15:37:29.709Z,26.45
2023-01-26T15:39:56.968Z,25.17
2023-01-26T15:42:33.483Z,27.67
2023-01-26T15:45:06.689Z,32.30
2023-01-26T15:47:33.478Z,27.73
2023-01-26T15:50:00.297Z,29.98
2023-01-26T15:52:30.438Z,27.60
2023-01-26T15:54:57.325Z,27.67
2023-01-26T15:57:24.030Z,29.30
2023-01-26T15:59:50.762Z,28.80
2023-01-26T16:02:20.402Z,31.25
2023-01-26T16:04:47.382Z,33.00
2023-01-26T16:07:18.732Z,31.77
2023-01-26T16:09:45.565Z,29.17
2023-01-26T16:12:30.455Z,28.92
2023-01-26T16:14:58.189Z,29.95
2023-01-26T16:17:25.019Z,27.75
2023-01-26T16:19:51.758Z,27.38
2023-01-26T16:22:18.546Z,28.05
2023-01-26T16:24:46.493Z,24.48
2023-01-26T16:27:22.795Z,26.15
2023-01-26T16:29:49.528Z,26.73
2023-01-26T16:32:28.454Z,27.33
2023-01-26T16:34:55.205Z,30.13
2023-01-26T16:37:24.551Z,26.90
2023-01-26T16:39:51.301Z,24.08
2023-01-26T16:42:21.241Z,24.33
2023-01-26T16:44:48.338Z,25.70
2023-01-26T16:47:15.214Z,22.38
2023-01-26T16:49:41.930Z,23.58
2023-01-26T16:52:09.447Z,23.38
2023-01-26T16:54:36.278Z,22.00
2023-01-26T16:57:03.075Z,22.10
2023-01-26T16:59:30.042Z,23.25
2023-01-26T17:01:57.201Z,22.83
2023-01-26T17:04:24.014Z,20.58
2023-01-26T17:06:51.671Z,21.17
2023-01-26T17:09:18.413Z,22.58
2023-01-26T17:11:45.253Z,23.95
2023-01-26T17:14:12.931Z,20.92
2023-01-26T17:16:39.775Z,22.27
2023-01-26T17:19:08.966Z,22.30
2023-01-26T17:21:36.078Z,22.95
2023-01-26T17:24:03.012Z,21.17
2023-01-26T17:26:29.821Z,22.05
2023-01-26T17:28:56.700Z,22.15
2023-01-26T17:31:25.652Z,21.15
2023-01-26T17:33:55.830Z,21.85
2023-01-26T17:36:23.198Z,21.77
2023-01-26T17:38:54.803Z,21.73
2023-01-26T17:41:21.764Z,22.80
2023-01-26T17:43:48.655Z,22.63
2023-01-26T17:46:20.163Z,22.85
2023-01-26T17:48:47.666Z,23.38
2023-01-26T17:51:19.208Z,24.80
2023-01-26T17:53:50.444Z,23.52
2023-01-26T17:56:20.190Z,22.00
2023-01-26T17:58:52.376Z,20.58
2023-01-26T18:01:20.717Z,23.10
2023-01-26T18:03:48.298Z,22.33
2023-01-26T18:06:15.441Z,22.98
2023-01-26T18:08:42.507Z,21.42
2023-01-26T18:11:12.283Z,22.58
2023-01-26T18:13:39.303Z,21.27
2023-01-26T18:16:23.245Z,21.33
2023-01-26T18:18:58.210Z,21.40
2023-01-26T18:21:27.260Z,22.43
2023-01-26T18:23:55.986Z,22.27
2023-01-26T18:26:25.040Z,23.48
2023-01-26T18:28:52.375Z,22.00
2023-01-26T18:31:24.133Z,21.58
2023-01-26T18:33:51.264Z,22.02
2023-01-26T18:36:20.376Z,22.83
2023-01-26T18:38:53.073Z,25.08
2023-01-26T18:41:22.249Z,21.77
2023-01-26T18:43:53.846Z,22.38
2023-01-26T18:46:22.031Z,23.27
2023-01-26T18:48:49.560Z,23.92
2023-01-26T18:51:18.231Z,23.10
2023-01-26T18:53:49.741Z,22.45
2023-01-26T18:56:17.255Z,22.73
2023-01-26T18:58:44.502Z,23.25
2023-01-26T19:01:15.975Z,23.15
2023-01-26T19:03:47.681Z,21.83
2023-01-26T19:06:19.985Z,23.95
2023-01-26T19:08:48.252Z,22.70
2023-01-26T19:11:15.381Z,22.52
2023-01-26T19:13:43.417Z,22.13
2023-01-26T19:16:10.278Z,22.77
2023-01-26T19:18:37.139Z,23.38
2023-01-26T19:21:05.158Z,23.92
2023-01-26T19:23:33.048Z,21.10
2023-01-26T19:26:00.047Z,24.52
2023-01-26T19:28:26.830Z,23.83
2023-01-26T19:31:02.244Z,23.13
2023-01-26T19:33:29.293Z,23.67
2023-01-26T19:35:56.511Z,24.33
2023-01-26T19:38:25.889Z,24.40
2023-01-26T19:40:53.196Z,22.58
2023-01-26T19:43:21.410Z,23.30
2023-01-26T19:45:49.838Z,24.58
2023-01-26T19:48:16.724Z,24.15
2023-01-26T19:50:43.497Z,22.88
2023-01-26T19:53:13.455Z,22.75
2023-01-26T19:55:40.156Z,25.27
2023-01-26T19:58:07.068Z,23.67
2023-01-26T20:00:33.794Z,24.58
2023-01-26T20:03:00.751Z,23.52
2023-01-26T20:05:27.531Z,23.50
2023-01-26T20:07:54.399Z,22.35
2023-01-26T20:10:21.135Z,21.17
2023-01-26T20:12:47.875Z,21.73
2023-01-26T20:15:14.973Z,23.08
2023-01-26T20:17:42.972Z,23.63
2023-01-26T20:20:12.346Z,23.00
2023-01-26T20:22:40.336Z,23.80
2023-01-26T20:25:07.852Z,23.05
2023-01-26T20:27:38.201Z,22.73
2023-01-26T20:30:06.253Z,24.95
2023-01-26T20:32:34.761Z,25.08
2023-01-26T20:35:02.359Z,27.30
2023-01-26T20:37:29.662Z,26.02
2023-01-26T20:39:56.595Z,24.10
2023-01-26T20:42:23.671Z,24.17
2023-01-26T20:44:51.046Z,23.27
2023-01-26T20:47:17.933Z,23.17
2023-01-26T20:49:45.025Z,24.75
2023-01-26T20:52:11.918Z,20.98
2023-01-26T20:54:45.343Z,21.83
2023-01-26T20:57:15.039Z,24.05
2023-01-26T20:59:42.415Z,23.60
2023-01-26T21:02:14.559Z,23.00
2023-01-26T21:04:41.725Z,23.50
2023-01-26T21:07:11.755Z,22.75
2023-01-26T21:09:41.356Z,22.30
2023-01-26T21:12:11.192Z,24.50
2023-01-26T21:14:37.887Z,24.92
2023-01-26T21:17:04.675Z,24.70
2023-01-26T21:19:31.606Z,22.02
2023-01-26T21:21:59.475Z,23.92
2023-01-26T21:24:26.430Z,25.02
2023-01-26T21:26:53.487Z,24.63
2023-01-26T21:29:20.559Z,24.50
2023-01-26T21:31:48.824Z,26.27
2023-01-26T21:34:15.915Z,24.33
2023-01-26T21:36:42.748Z,25.10
2023-01-26T21:39:14.848Z,22.20
2023-01-26T21:41:56.897Z,25.63
2023-01-26T21:44:31.096Z,22.88
2023-01-26T21:47:03.058Z,22.98
2023-01-26T21:49:30.262Z,22.98
2023-01-26T21:52:15.922Z,22.42
2023-01-26T21:54:42.750Z,21.40
2023-01-26T21:57:29.833Z,22.00
2023-01-26T21:59:56.803Z,21.63
2023-01-26T22:02:23.740Z,22.10
2023-01-26T22:04:50.752Z,23.65
2023-01-26T22:07:17.527Z,24.17
2023-01-26T22:09:44.266Z,21.70
2023-01-26T22:12:10.990Z,22.30
2023-01-26T22:14:37.686Z,21.30
2023-01-26T22:17:04.480Z,22.38
2023-01-26T22:19:31.221Z,23.20
2023-01-26T22:22:02.265Z,23.30
2023-01-26T22:24:29.072Z,22.80
2023-01-26T22:26:55.883Z,22.25
2023-01-26T22:29:22.582Z,22.05
2023-01-26T22:31:50.567Z,21.27
2023-01-26T22:34:17.401Z,21.20
2023-01-26T22:36:44.349Z,21.13
2023-01-26T22:39:12.259Z,20.90
2023-01-26T22:41:39.095Z,20.48
2023-01-26T22:44:06.142Z,22.15
2023-01-26T22:46:33.095Z,21.42
2023-01-26T22:49:00.394Z,21.02
2023-01-26T22:51:31.033Z,21.98
2023-01-26T22:53:59.487Z,21.77
2023-01-26T22:56:27.256Z,22.63
2023-01-26T22:59:00.522Z,21.63
2023-01-26T23:01:29.498Z,21.25
2023-01-26T23:03:57.284Z,22.80
2023-01-26T23:06:26.431Z,22.65
2023-01-26T23:08:58.182Z,21.63
2023-01-26T23:11:27.038Z,21.58
2023-01-26T23:13:55.403Z,21.42
2023-01-26T23:16:23.660Z,23.98
2023-01-26T23:18:54.145Z,21.20
2023-01-26T23:21:21.576Z,22.80
2023-01-26T23:23:48.529Z,21.35
2023-01-26T23:26:15.700Z,22.25
2023-01-26T23:28:44.653Z,22.75
2023-01-26T23:31:13.981Z,21.38
2023-01-26T23:33:41.264Z,23.20
2023-01-26T23:36:09.984Z,23.30
2023-01-26T23:38:36.748Z,23.75
2023-01-26T23:41:05.477Z,23.92
2023-01-26T23:43:32.393Z,22.08
2023-01-26T23:45:59.262Z,21.77
2023-01-26T23:48:26.824Z,22.38
2023-01-26T23:50:58.193Z,22.77
2023-01-26T23:53:24.974Z,21.02
2023-01-26T23:55:51.816Z,23.33
2023-01-26T23:58:19.468Z,22.25
